sensor_id;sensor_type;location;lat;lon;timestamp;P1;durP1;ratioP1;P2;durP2;ratioP2
68614;SDS011;55593;51.994;5.882;2022-10-16T00:01:51;11.77;;;3.53;;
68614;SDS011;55593;51.994;5.882;2022-10-16T00:04:20;10.35;;;3.53;;
68614;SDS011;55593;51.994;5.882;2022-10-16T00:06:49;7.47;;;3.40;;
68614;SDS011;55593;51.994;5.882;2022-10-16T00:09:18;10.98;;;3.58;;
68614;SDS011;55593;51.994;5.882;2022-10-16T00:11:50;8.95;;;3.80;;
68614;SDS011;55593;51.994;5.882;2022-10-16T00:14:19;6.85;;;3.20;;
68614;SDS011;55593;51.994;5.882;2022-10-16T00:16:48;10.52;;;3.20;;
68614;SDS011;55593;51.994;5.882;2022-10-16T00:19:17;12.55;;;3.33;;
68614;SDS011;55593;51.994;5.882;2022-10-16T00:21:47;16.35;;;3.47;;
68614;SDS011;55593;51.994;5.882;2022-10-16T00:24:16;6.88;;;3.40;;
68614;SDS011;55593;51.994;5.882;2022-10-16T00:26:45;7.70;;;3.67;;
68614;SDS011;55593;51.994;5.882;2022-10-16T00:29:20;9.68;;;3.38;;
68614;SDS011;55593;51.994;5.882;2022-10-16T00:31:49;12.85;;;3.35;;
68614;SDS011;55593;51.994;5.882;2022-10-16T00:34:18;14.38;;;4.15;;
68614;SDS011;55593;51.994;5.882;2022-10-16T00:36:48;6.28;;;3.30;;
68614;SDS011;55593;51.994;5.882;2022-10-16T00:39:17;10.88;;;3.92;;
68614;SDS011;55593;51.994;5.882;2022-10-16T00:41:46;7.63;;;3.00;;
68614;SDS011;55593;51.994;5.882;2022-10-16T00:47:17;8.20;;;3.85;;
68614;SDS011;55593;51.994;5.882;2022-10-16T00:49:49;9.32;;;3.58;;
68614;SDS011;55593;51.994;5.882;2022-10-16T00:52:19;10.13;;;3.78;;
68614;SDS011;55593;51.994;5.882;2022-10-16T00:54:48;8.85;;;4.25;;
68614;SDS011;55593;51.994;5.882;2022-10-16T00:57:18;11.02;;;3.72;;
68614;SDS011;55593;51.994;5.882;2022-10-16T00:59:50;6.75;;;3.63;;
68614;SDS011;55593;51.994;5.882;2022-10-16T01:02:20;9.70;;;3.72;;
68614;SDS011;55593;51.994;5.882;2022-10-16T01:04:50;8.40;;;3.40;;
68614;SDS011;55593;51.994;5.882;2022-10-16T01:07:24;8.30;;;3.70;;
68614;SDS011;55593;51.994;5.882;2022-10-16T01:10:02;9.50;;;3.88;;
68614;SDS011;55593;51.994;5.882;2022-10-16T01:12:38;10.93;;;3.72;;
68614;SDS011;55593;51.994;5.882;2022-10-16T01:15:14;12.00;;;4.13;;
68614;SDS011;55593;51.994;5.882;2022-10-16T01:17:48;9.63;;;4.10;;
68614;SDS011;55593;51.994;5.882;2022-10-16T01:20:21;12.60;;;4.10;;
68614;SDS011;55593;51.994;5.882;2022-10-16T01:23:05;11.32;;;4.28;;
68614;SDS011;55593;51.994;5.882;2022-10-16T01:25:52;6.82;;;3.85;;
68614;SDS011;55593;51.994;5.882;2022-10-16T01:28:36;13.52;;;4.22;;
68614;SDS011;55593;51.994;5.882;2022-10-16T01:31:08;14.95;;;4.32;;
68614;SDS011;55593;51.994;5.882;2022-10-16T01:33:40;10.13;;;4.10;;
68614;SDS011;55593;51.994;5.882;2022-10-16T01:36:13;11.13;;;4.47;;
68614;SDS011;55593;51.994;5.882;2022-10-16T01:38:44;11.75;;;5.35;;
68614;SDS011;55593;51.994;5.882;2022-10-16T01:41:17;11.35;;;4.13;;
68614;SDS011;55593;51.994;5.882;2022-10-16T01:43:55;9.80;;;4.38;;
68614;SDS011;55593;51.994;5.882;2022-10-16T01:46:28;12.45;;;4.05;;
68614;SDS011;55593;51.994;5.882;2022-10-16T01:49:00;13.48;;;5.20;;
68614;SDS011;55593;51.994;5.882;2022-10-16T01:51:29;15.82;;;4.68;;
68614;SDS011;55593;51.994;5.882;2022-10-16T01:53:59;10.45;;;4.60;;
68614;SDS011;55593;51.994;5.882;2022-10-16T01:56:29;9.35;;;4.30;;
68614;SDS011;55593;51.994;5.882;2022-10-16T01:59:02;7.38;;;4.03;;
68614;SDS011;55593;51.994;5.882;2022-10-16T02:01:33;6.63;;;4.45;;
68614;SDS011;55593;51.994;5.882;2022-10-16T02:04:04;10.05;;;4.00;;
68614;SDS011;55593;51.994;5.882;2022-10-16T02:06:37;8.10;;;4.35;;
68614;SDS011;55593;51.994;5.882;2022-10-16T02:09:06;5.93;;;3.55;;
68614;SDS011;55593;51.994;5.882;2022-10-16T02:11:35;7.30;;;3.70;;
68614;SDS011;55593;51.994;5.882;2022-10-16T02:14:07;8.63;;;3.95;;
68614;SDS011;55593;51.994;5.882;2022-10-16T02:16:37;6.20;;;3.58;;
68614;SDS011;55593;51.994;5.882;2022-10-16T02:19:11;7.32;;;3.90;;
68614;SDS011;55593;51.994;5.882;2022-10-16T02:21:42;6.95;;;4.05;;
68614;SDS011;55593;51.994;5.882;2022-10-16T02:24:14;7.70;;;3.78;;
68614;SDS011;55593;51.994;5.882;2022-10-16T02:26:48;7.28;;;4.05;;
68614;SDS011;55593;51.994;5.882;2022-10-16T02:29:22;12.02;;;5.15;;
68614;SDS011;55593;51.994;5.882;2022-10-16T02:31:54;9.97;;;3.60;;
68614;SDS011;55593;51.994;5.882;2022-10-16T02:34:24;7.35;;;3.42;;
68614;SDS011;55593;51.994;5.882;2022-10-16T02:36:54;11.90;;;3.78;;
68614;SDS011;55593;51.994;5.882;2022-10-16T02:39:24;6.18;;;3.65;;
68614;SDS011;55593;51.994;5.882;2022-10-16T02:41:55;11.20;;;3.50;;
68614;SDS011;55593;51.994;5.882;2022-10-16T02:44:27;10.82;;;4.05;;
68614;SDS011;55593;51.994;5.882;2022-10-16T02:46:56;6.38;;;3.30;;
68614;SDS011;55593;51.994;5.882;2022-10-16T02:49:25;8.75;;;4.13;;
68614;SDS011;55593;51.994;5.882;2022-10-16T02:51:54;8.63;;;4.10;;
68614;SDS011;55593;51.994;5.882;2022-10-16T02:54:23;6.40;;;3.97;;
68614;SDS011;55593;51.994;5.882;2022-10-16T02:56:52;6.65;;;3.80;;
68614;SDS011;55593;51.994;5.882;2022-10-16T02:59:21;7.88;;;4.03;;
68614;SDS011;55593;51.994;5.882;2022-10-16T03:01:53;7.47;;;3.35;;
68614;SDS011;55593;51.994;5.882;2022-10-16T03:04:22;9.05;;;3.42;;
68614;SDS011;55593;51.994;5.882;2022-10-16T03:06:52;6.63;;;3.67;;
68614;SDS011;55593;51.994;5.882;2022-10-16T03:09:21;7.05;;;3.72;;
68614;SDS011;55593;51.994;5.882;2022-10-16T03:11:50;7.38;;;3.75;;
68614;SDS011;55593;51.994;5.882;2022-10-16T03:14:19;5.53;;;3.05;;
68614;SDS011;55593;51.994;5.882;2022-10-16T03:16:48;10.05;;;3.38;;
68614;SDS011;55593;51.994;5.882;2022-10-16T03:19:20;8.50;;;3.65;;
68614;SDS011;55593;51.994;5.882;2022-10-16T03:21:49;5.40;;;3.03;;
68614;SDS011;55593;51.994;5.882;2022-10-16T03:24:18;8.63;;;3.47;;
68614;SDS011;55593;51.994;5.882;2022-10-16T03:26:47;7.60;;;3.28;;
68614;SDS011;55593;51.994;5.882;2022-10-16T03:29:16;4.57;;;2.85;;
68614;SDS011;55593;51.994;5.882;2022-10-16T03:31:46;7.43;;;3.40;;
68614;SDS011;55593;51.994;5.882;2022-10-16T03:34:15;7.25;;;3.28;;
68614;SDS011;55593;51.994;5.882;2022-10-16T03:36:47;7.38;;;2.95;;
68614;SDS011;55593;51.994;5.882;2022-10-16T03:39:16;8.10;;;3.53;;
68614;SDS011;55593;51.994;5.882;2022-10-16T03:41:45;12.00;;;3.88;;
68614;SDS011;55593;51.994;5.882;2022-10-16T03:44:14;6.85;;;3.33;;
68614;SDS011;55593;51.994;5.882;2022-10-16T03:46:44;8.20;;;3.25;;
68614;SDS011;55593;51.994;5.882;2022-10-16T03:49:13;5.38;;;3.28;;
68614;SDS011;55593;51.994;5.882;2022-10-16T03:51:42;10.23;;;3.42;;
68614;SDS011;55593;51.994;5.882;2022-10-16T03:54:14;6.45;;;2.92;;
68614;SDS011;55593;51.994;5.882;2022-10-16T03:56:43;7.60;;;2.95;;
68614;SDS011;55593;51.994;5.882;2022-10-16T03:59:12;4.68;;;2.78;;
68614;SDS011;55593;51.994;5.882;2022-10-16T04:01:41;4.70;;;3.03;;
68614;SDS011;55593;51.994;5.882;2022-10-16T04:04:10;8.75;;;3.20;;
68614;SDS011;55593;51.994;5.882;2022-10-16T04:06:40;7.32;;;2.80;;
68614;SDS011;55593;51.994;5.882;2022-10-16T04:09:09;6.70;;;3.80;;
68614;SDS011;55593;51.994;5.882;2022-10-16T04:11:40;7.97;;;3.30;;
68614;SDS011;55593;51.994;5.882;2022-10-16T04:14:10;6.25;;;3.10;;
68614;SDS011;55593;51.994;5.882;2022-10-16T04:16:39;8.77;;;3.50;;
68614;SDS011;55593;51.994;5.882;2022-10-16T04:19:08;6.32;;;3.20;;
68614;SDS011;55593;51.994;5.882;2022-10-16T04:21:37;6.72;;;3.38;;
68614;SDS011;55593;51.994;5.882;2022-10-16T04:24:07;5.22;;;3.00;;
68614;SDS011;55593;51.994;5.882;2022-10-16T04:26:37;10.77;;;3.72;;
68614;SDS011;55593;51.994;5.882;2022-10-16T04:29:09;8.00;;;4.05;;
68614;SDS011;55593;51.994;5.882;2022-10-16T04:31:38;6.65;;;3.42;;
68614;SDS011;55593;51.994;5.882;2022-10-16T04:34:07;8.30;;;3.05;;
68614;SDS011;55593;51.994;5.882;2022-10-16T04:36:36;4.35;;;3.08;;
68614;SDS011;55593;51.994;5.882;2022-10-16T04:39:05;8.23;;;3.33;;
68614;SDS011;55593;51.994;5.882;2022-10-16T04:41:34;5.55;;;3.15;;
68614;SDS011;55593;51.994;5.882;2022-10-16T04:44:03;8.10;;;2.85;;
68614;SDS011;55593;51.994;5.882;2022-10-16T04:46:35;5.43;;;2.95;;
68614;SDS011;55593;51.994;5.882;2022-10-16T04:49:04;10.30;;;3.60;;
68614;SDS011;55593;51.994;5.882;2022-10-16T04:51:34;5.55;;;2.95;;
68614;SDS011;55593;51.994;5.882;2022-10-16T04:54:03;8.25;;;4.13;;
68614;SDS011;55593;51.994;5.882;2022-10-16T04:56:32;6.82;;;3.42;;
68614;SDS011;55593;51.994;5.882;2022-10-16T04:59:06;11.07;;;3.00;;
68614;SDS011;55593;51.994;5.882;2022-10-16T05:01:37;5.05;;;2.85;;
68614;SDS011;55593;51.994;5.882;2022-10-16T05:04:07;8.70;;;3.40;;
68614;SDS011;55593;51.994;5.882;2022-10-16T05:06:36;6.80;;;3.70;;
68614;SDS011;55593;51.994;5.882;2022-10-16T05:09:06;7.40;;;3.00;;
68614;SDS011;55593;51.994;5.882;2022-10-16T05:11:35;5.20;;;2.97;;
68614;SDS011;55593;51.994;5.882;2022-10-16T05:14:04;6.03;;;3.28;;
68614;SDS011;55593;51.994;5.882;2022-10-16T05:16:34;6.50;;;2.80;;
68614;SDS011;55593;51.994;5.882;2022-10-16T05:19:05;6.32;;;3.58;;
68614;SDS011;55593;51.994;5.882;2022-10-16T05:21:35;8.00;;;3.90;;
68614;SDS011;55593;51.994;5.882;2022-10-16T05:24:04;6.22;;;3.13;;
68614;SDS011;55593;51.994;5.882;2022-10-16T05:26:33;8.20;;;3.10;;
68614;SDS011;55593;51.994;5.882;2022-10-16T05:29:02;9.38;;;3.10;;
68614;SDS011;55593;51.994;5.882;2022-10-16T05:31:31;9.90;;;3.50;;
68614;SDS011;55593;51.994;5.882;2022-10-16T05:34:01;6.53;;;3.22;;
68614;SDS011;55593;51.994;5.882;2022-10-16T05:36:33;9.48;;;3.42;;
68614;SDS011;55593;51.994;5.882;2022-10-16T05:39:03;6.75;;;2.95;;
68614;SDS011;55593;51.994;5.882;2022-10-16T05:41:33;6.70;;;3.25;;
68614;SDS011;55593;51.994;5.882;2022-10-16T05:44:03;5.68;;;3.05;;
68614;SDS011;55593;51.994;5.882;2022-10-16T05:46:33;9.93;;;3.88;;
68614;SDS011;55593;51.994;5.882;2022-10-16T05:49:02;6.65;;;3.00;;
68614;SDS011;55593;51.994;5.882;2022-10-16T05:51:34;6.63;;;3.45;;
68614;SDS011;55593;51.994;5.882;2022-10-16T05:54:03;6.88;;;3.38;;
68614;SDS011;55593;51.994;5.882;2022-10-16T05:56:32;7.13;;;3.13;;
68614;SDS011;55593;51.994;5.882;2022-10-16T05:59:02;10.32;;;3.10;;
68614;SDS011;55593;51.994;5.882;2022-10-16T06:01:32;12.30;;;3.45;;
68614;SDS011;55593;51.994;5.882;2022-10-16T06:04:01;6.13;;;3.22;;
68614;SDS011;55593;51.994;5.882;2022-10-16T06:06:30;7.55;;;3.28;;
68614;SDS011;55593;51.994;5.882;2022-10-16T06:09:03;13.57;;;3.33;;
68614;SDS011;55593;51.994;5.882;2022-10-16T06:11:32;7.90;;;3.25;;
68614;SDS011;55593;51.994;5.882;2022-10-16T06:14:02;7.75;;;3.85;;
68614;SDS011;55593;51.994;5.882;2022-10-16T06:16:33;12.98;;;3.65;;
68614;SDS011;55593;51.994;5.882;2022-10-16T06:19:03;8.07;;;3.33;;
68614;SDS011;55593;51.994;5.882;2022-10-16T06:21:36;6.13;;;3.47;;
68614;SDS011;55593;51.994;5.882;2022-10-16T06:24:05;8.13;;;3.58;;
68614;SDS011;55593;51.994;5.882;2022-10-16T06:26:34;9.30;;;3.67;;
68614;SDS011;55593;51.994;5.882;2022-10-16T06:29:04;6.90;;;3.70;;
68614;SDS011;55593;51.994;5.882;2022-10-16T06:31:33;7.72;;;4.10;;
68614;SDS011;55593;51.994;5.882;2022-10-16T06:34:02;10.60;;;3.95;;
68614;SDS011;55593;51.994;5.882;2022-10-16T06:36:37;8.27;;;3.78;;
68614;SDS011;55593;51.994;5.882;2022-10-16T06:39:07;6.63;;;3.63;;
68614;SDS011;55593;51.994;5.882;2022-10-16T06:41:36;6.85;;;3.95;;
68614;SDS011;55593;51.994;5.882;2022-10-16T06:44:15;10.10;;;4.82;;
68614;SDS011;55593;51.994;5.882;2022-10-16T06:46:44;9.07;;;3.90;;
68614;SDS011;55593;51.994;5.882;2022-10-16T06:49:13;6.70;;;3.50;;
68614;SDS011;55593;51.994;5.882;2022-10-16T06:51:49;6.03;;;3.63;;
68614;SDS011;55593;51.994;5.882;2022-10-16T06:54:19;6.63;;;3.40;;
68614;SDS011;55593;51.994;5.882;2022-10-16T06:56:48;12.27;;;3.58;;
68614;SDS011;55593;51.994;5.882;2022-10-16T06:59:17;9.38;;;3.30;;
68614;SDS011;55593;51.994;5.882;2022-10-16T07:01:46;9.15;;;3.90;;
68614;SDS011;55593;51.994;5.882;2022-10-16T07:04:16;7.18;;;3.17;;
68614;SDS011;55593;51.994;5.882;2022-10-16T07:06:45;8.70;;;3.67;;
68614;SDS011;55593;51.994;5.882;2022-10-16T07:09:17;6.70;;;3.95;;
68614;SDS011;55593;51.994;5.882;2022-10-16T07:11:47;10.20;;;3.75;;
68614;SDS011;55593;51.994;5.882;2022-10-16T07:14:17;9.05;;;3.42;;
68614;SDS011;55593;51.994;5.882;2022-10-16T07:16:48;6.47;;;3.80;;
68614;SDS011;55593;51.994;5.882;2022-10-16T07:19:17;7.43;;;3.72;;
68614;SDS011;55593;51.994;5.882;2022-10-16T07:21:46;9.68;;;3.53;;
68614;SDS011;55593;51.994;5.882;2022-10-16T07:24:18;8.93;;;3.63;;
68614;SDS011;55593;51.994;5.882;2022-10-16T07:26:47;7.07;;;3.55;;
68614;SDS011;55593;51.994;5.882;2022-10-16T07:29:17;7.47;;;3.83;;
68614;SDS011;55593;51.994;5.882;2022-10-16T07:31:47;7.97;;;3.10;;
68614;SDS011;55593;51.994;5.882;2022-10-16T07:34:18;5.95;;;3.30;;
68614;SDS011;55593;51.994;5.882;2022-10-16T07:36:48;10.70;;;3.85;;
68614;SDS011;55593;51.994;5.882;2022-10-16T07:39:20;6.50;;;3.28;;
68614;SDS011;55593;51.994;5.882;2022-10-16T07:41:50;10.23;;;4.28;;
68614;SDS011;55593;51.994;5.882;2022-10-16T07:44:19;8.20;;;3.55;;
68614;SDS011;55593;51.994;5.882;2022-10-16T07:46:48;10.90;;;4.32;;
68614;SDS011;55593;51.994;5.882;2022-10-16T07:49:18;6.10;;;3.30;;
68614;SDS011;55593;51.994;5.882;2022-10-16T07:51:47;8.02;;;3.75;;
68614;SDS011;55593;51.994;5.882;2022-10-16T07:54:16;6.63;;;3.80;;
68614;SDS011;55593;51.994;5.882;2022-10-16T07:56:48;9.68;;;3.50;;
68614;SDS011;55593;51.994;5.882;2022-10-16T07:59:17;9.77;;;3.95;;
68614;SDS011;55593;51.994;5.882;2022-10-16T08:01:46;11.63;;;3.40;;
68614;SDS011;55593;51.994;5.882;2022-10-16T08:04:15;10.82;;;3.60;;
68614;SDS011;55593;51.994;5.882;2022-10-16T08:06:44;10.70;;;3.70;;
68614;SDS011;55593;51.994;5.882;2022-10-16T08:09:15;7.82;;;3.55;;
68614;SDS011;55593;51.994;5.882;2022-10-16T08:11:44;10.45;;;4.20;;
68614;SDS011;55593;51.994;5.882;2022-10-16T08:14:15;12.40;;;3.58;;
68614;SDS011;55593;51.994;5.882;2022-10-16T08:16:45;5.70;;;3.10;;
68614;SDS011;55593;51.994;5.882;2022-10-16T08:19:14;8.45;;;3.58;;
68614;SDS011;55593;51.994;5.882;2022-10-16T08:21:46;7.45;;;2.90;;
68614;SDS011;55593;51.994;5.882;2022-10-16T08:24:16;7.43;;;3.63;;
68614;SDS011;55593;51.994;5.882;2022-10-16T08:26:45;11.70;;;3.42;;
68614;SDS011;55593;51.994;5.882;2022-10-16T08:29:19;8.25;;;3.05;;
68614;SDS011;55593;51.994;5.882;2022-10-16T08:31:48;7.13;;;3.20;;
68614;SDS011;55593;51.994;5.882;2022-10-16T08:34:18;6.93;;;3.25;;
68614;SDS011;55593;51.994;5.882;2022-10-16T08:36:47;13.95;;;4.07;;
68614;SDS011;55593;51.994;5.882;2022-10-16T08:39:16;9.60;;;3.25;;
68614;SDS011;55593;51.994;5.882;2022-10-16T08:44:54;8.68;;;3.08;;
68614;SDS011;55593;51.994;5.882;2022-10-16T08:47:35;8.55;;;3.53;;
68614;SDS011;55593;51.994;5.882;2022-10-16T08:50:13;10.15;;;4.25;;
68614;SDS011;55593;51.994;5.882;2022-10-16T08:52:43;6.97;;;3.15;;
68614;SDS011;55593;51.994;5.882;2022-10-16T08:55:29;6.45;;;3.28;;
68614;SDS011;55593;51.994;5.882;2022-10-16T08:58:00;6.25;;;3.28;;
68614;SDS011;55593;51.994;5.882;2022-10-16T09:00:32;7.95;;;3.22;;
68614;SDS011;55593;51.994;5.882;2022-10-16T09:03:04;6.22;;;2.95;;
68614;SDS011;55593;51.994;5.882;2022-10-16T09:05:57;11.30;;;3.38;;
68614;SDS011;55593;51.994;5.882;2022-10-16T09:08:57;7.82;;;3.08;;
68614;SDS011;55593;51.994;5.882;2022-10-16T09:11:38;9.82;;;2.83;;
68614;SDS011;55593;51.994;5.882;2022-10-16T09:14:17;9.05;;;3.97;;
68614;SDS011;55593;51.994;5.882;2022-10-16T09:16:56;10.65;;;3.22;;
68614;SDS011;55593;51.994;5.882;2022-10-16T09:19:28;11.82;;;3.72;;
68614;SDS011;55593;51.994;5.882;2022-10-16T09:21:59;9.27;;;3.17;;
68614;SDS011;55593;51.994;5.882;2022-10-16T09:24:29;8.75;;;4.75;;
68614;SDS011;55593;51.994;5.882;2022-10-16T09:26:58;11.07;;;4.22;;
68614;SDS011;55593;51.994;5.882;2022-10-16T09:29:28;10.40;;;3.10;;
68614;SDS011;55593;51.994;5.882;2022-10-16T09:32:06;9.95;;;3.17;;
68614;SDS011;55593;51.994;5.882;2022-10-16T09:34:39;11.57;;;3.20;;
68614;SDS011;55593;51.994;5.882;2022-10-16T09:37:11;11.60;;;3.25;;
68614;SDS011;55593;51.994;5.882;2022-10-16T09:39:45;15.60;;;3.65;;
68614;SDS011;55593;51.994;5.882;2022-10-16T09:42:16;8.98;;;2.92;;
68614;SDS011;55593;51.994;5.882;2022-10-16T09:44:47;12.52;;;4.15;;
68614;SDS011;55593;51.994;5.882;2022-10-16T09:47:20;10.48;;;2.72;;
68614;SDS011;55593;51.994;5.882;2022-10-16T09:49:51;13.15;;;2.92;;
68614;SDS011;55593;51.994;5.882;2022-10-16T09:52:22;14.57;;;3.35;;
68614;SDS011;55593;51.994;5.882;2022-10-16T09:54:52;11.48;;;3.03;;
68614;SDS011;55593;51.994;5.882;2022-10-16T09:57:22;8.45;;;2.75;;
68614;SDS011;55593;51.994;5.882;2022-10-16T09:59:52;14.90;;;3.50;;
68614;SDS011;55593;51.994;5.882;2022-10-16T10:02:27;13.13;;;4.65;;
68614;SDS011;55593;51.994;5.882;2022-10-16T10:04:58;13.02;;;3.20;;
68614;SDS011;55593;51.994;5.882;2022-10-16T10:07:28;14.82;;;3.40;;
68614;SDS011;55593;51.994;5.882;2022-10-16T10:10:01;10.40;;;3.08;;
68614;SDS011;55593;51.994;5.882;2022-10-16T10:12:32;10.45;;;2.97;;
68614;SDS011;55593;51.994;5.882;2022-10-16T10:15:03;11.18;;;2.92;;
68614;SDS011;55593;51.994;5.882;2022-10-16T10:17:44;15.15;;;4.15;;
68614;SDS011;55593;51.994;5.882;2022-10-16T10:20:20;10.05;;;2.88;;
68614;SDS011;55593;51.994;5.882;2022-10-16T10:22:51;13.30;;;4.05;;
68614;SDS011;55593;51.994;5.882;2022-10-16T10:25:26;17.52;;;5.03;;
68614;SDS011;55593;51.994;5.882;2022-10-16T10:28:15;16.92;;;3.33;;
68614;SDS011;55593;51.994;5.882;2022-10-16T10:30:50;11.88;;;2.53;;
68614;SDS011;55593;51.994;5.882;2022-10-16T10:33:31;14.27;;;2.70;;
68614;SDS011;55593;51.994;5.882;2022-10-16T10:36:09;16.13;;;3.30;;
68614;SDS011;55593;51.994;5.882;2022-10-16T10:38:50;16.25;;;3.85;;
68614;SDS011;55593;51.994;5.882;2022-10-16T10:41:39;19.63;;;3.17;;
68614;SDS011;55593;51.994;5.882;2022-10-16T10:44:35;18.63;;;3.13;;
68614;SDS011;55593;51.994;5.882;2022-10-16T10:47:15;14.73;;;3.33;;
68614;SDS011;55593;51.994;5.882;2022-10-16T10:49:56;18.90;;;2.80;;
68614;SDS011;55593;51.994;5.882;2022-10-16T10:52:38;12.75;;;2.65;;
68614;SDS011;55593;51.994;5.882;2022-10-16T10:55:14;19.02;;;2.80;;
68614;SDS011;55593;51.994;5.882;2022-10-16T10:57:58;21.20;;;3.85;;
68614;SDS011;55593;51.994;5.882;2022-10-16T11:00:39;12.38;;;2.55;;
68614;SDS011;55593;51.994;5.882;2022-10-16T11:03:14;20.67;;;3.10;;
68614;SDS011;55593;51.994;5.882;2022-10-16T11:05:59;21.35;;;3.53;;
68614;SDS011;55593;51.994;5.882;2022-10-16T11:08:34;16.17;;;3.22;;
68614;SDS011;55593;51.994;5.882;2022-10-16T11:11:05;18.98;;;3.05;;
68614;SDS011;55593;51.994;5.882;2022-10-16T11:13:38;16.25;;;3.08;;
68614;SDS011;55593;51.994;5.882;2022-10-16T11:16:11;13.50;;;2.20;;
68614;SDS011;55593;51.994;5.882;2022-10-16T11:18:46;16.73;;;2.83;;
68614;SDS011;55593;51.994;5.882;2022-10-16T11:21:22;9.75;;;2.03;;
68614;SDS011;55593;51.994;5.882;2022-10-16T11:23:53;15.93;;;2.70;;
68614;SDS011;55593;51.994;5.882;2022-10-16T11:26:28;13.77;;;2.45;;
68614;SDS011;55593;51.994;5.882;2022-10-16T11:29:01;8.38;;;2.03;;
68614;SDS011;55593;51.994;5.882;2022-10-16T11:31:34;17.70;;;2.80;;
68614;SDS011;55593;51.994;5.882;2022-10-16T11:34:06;16.25;;;2.50;;
68614;SDS011;55593;51.994;5.882;2022-10-16T11:36:46;14.95;;;2.50;;
68614;SDS011;55593;51.994;5.882;2022-10-16T11:39:19;18.17;;;4.35;;
68614;SDS011;55593;51.994;5.882;2022-10-16T11:41:50;16.33;;;3.50;;
68614;SDS011;55593;51.994;5.882;2022-10-16T11:44:34;12.20;;;2.85;;
68614;SDS011;55593;51.994;5.882;2022-10-16T11:47:10;11.33;;;2.80;;
68614;SDS011;55593;51.994;5.882;2022-10-16T11:49:44;18.60;;;3.17;;
68614;SDS011;55593;51.994;5.882;2022-10-16T11:52:19;17.75;;;2.70;;
68614;SDS011;55593;51.994;5.882;2022-10-16T11:54:52;14.30;;;2.75;;
68614;SDS011;55593;51.994;5.882;2022-10-16T11:57:24;13.13;;;2.53;;
68614;SDS011;55593;51.994;5.882;2022-10-16T11:59:55;15.45;;;3.13;;
68614;SDS011;55593;51.994;5.882;2022-10-16T12:02:40;11.57;;;3.03;;
68614;SDS011;55593;51.994;5.882;2022-10-16T12:05:18;19.45;;;3.47;;
68614;SDS011;55593;51.994;5.882;2022-10-16T12:07:55;21.17;;;3.17;;
68614;SDS011;55593;51.994;5.882;2022-10-16T12:10:30;16.88;;;2.58;;
68614;SDS011;55593;51.994;5.882;2022-10-16T12:13:03;10.40;;;2.17;;
68614;SDS011;55593;51.994;5.882;2022-10-16T12:15:33;12.05;;;2.28;;
68614;SDS011;55593;51.994;5.882;2022-10-16T12:18:02;14.43;;;2.40;;
68614;SDS011;55593;51.994;5.882;2022-10-16T12:20:32;11.13;;;2.08;;
68614;SDS011;55593;51.994;5.882;2022-10-16T12:23:05;11.07;;;2.42;;
68614;SDS011;55593;51.994;5.882;2022-10-16T12:25:35;13.70;;;2.92;;
68614;SDS011;55593;51.994;5.882;2022-10-16T12:28:17;18.70;;;2.65;;
68614;SDS011;55593;51.994;5.882;2022-10-16T12:30:52;14.20;;;2.50;;
68614;SDS011;55593;51.994;5.882;2022-10-16T12:33:23;14.27;;;2.50;;
68614;SDS011;55593;51.994;5.882;2022-10-16T12:35:53;12.70;;;2.47;;
68614;SDS011;55593;51.994;5.882;2022-10-16T12:38:27;16.33;;;3.13;;
68614;SDS011;55593;51.994;5.882;2022-10-16T12:41:07;17.48;;;2.75;;
68614;SDS011;55593;51.994;5.882;2022-10-16T12:43:39;18.08;;;3.08;;
68614;SDS011;55593;51.994;5.882;2022-10-16T12:46:24;12.35;;;2.53;;
68614;SDS011;55593;51.994;5.882;2022-10-16T12:49:06;9.75;;;2.08;;
68614;SDS011;55593;51.994;5.882;2022-10-16T12:51:47;16.17;;;2.03;;
68614;SDS011;55593;51.994;5.882;2022-10-16T12:54:20;14.65;;;2.50;;
68614;SDS011;55593;51.994;5.882;2022-10-16T12:56:55;13.85;;;2.67;;
68614;SDS011;55593;51.994;5.882;2022-10-16T12:59:34;16.67;;;3.63;;
68614;SDS011;55593;51.994;5.882;2022-10-16T13:05:30;14.32;;;3.28;;
68614;SDS011;55593;51.994;5.882;2022-10-16T13:08:12;12.23;;;2.45;;
68614;SDS011;55593;51.994;5.882;2022-10-16T13:10:59;14.85;;;2.63;;
68614;SDS011;55593;51.994;5.882;2022-10-16T13:13:36;13.98;;;2.92;;
68614;SDS011;55593;51.994;5.882;2022-10-16T13:16:13;13.77;;;2.42;;
68614;SDS011;55593;51.994;5.882;2022-10-16T13:18:49;11.87;;;2.23;;
68614;SDS011;55593;51.994;5.882;2022-10-16T13:21:29;14.00;;;2.40;;
68614;SDS011;55593;51.994;5.882;2022-10-16T13:24:03;19.15;;;3.53;;
68614;SDS011;55593;51.994;5.882;2022-10-16T13:26:44;12.23;;;2.25;;
68614;SDS011;55593;51.994;5.882;2022-10-16T13:29:18;16.33;;;2.47;;
68614;SDS011;55593;51.994;5.882;2022-10-16T13:31:48;23.75;;;3.28;;
68614;SDS011;55593;51.994;5.882;2022-10-16T13:34:18;17.33;;;2.25;;
68614;SDS011;55593;51.994;5.882;2022-10-16T13:36:50;20.42;;;3.58;;
68614;SDS011;55593;51.994;5.882;2022-10-16T13:39:21;12.75;;;3.33;;
68614;SDS011;55593;51.994;5.882;2022-10-16T13:42:00;10.80;;;2.20;;
68614;SDS011;55593;51.994;5.882;2022-10-16T13:44:31;15.02;;;2.45;;
68614;SDS011;55593;51.994;5.882;2022-10-16T13:47:05;14.98;;;2.60;;
68614;SDS011;55593;51.994;5.882;2022-10-16T13:49:34;12.18;;;2.40;;
68614;SDS011;55593;51.994;5.882;2022-10-16T13:52:03;13.45;;;2.78;;
68614;SDS011;55593;51.994;5.882;2022-10-16T13:54:32;18.05;;;3.35;;
68614;SDS011;55593;51.994;5.882;2022-10-16T13:57:07;15.13;;;2.90;;
68614;SDS011;55593;51.994;5.882;2022-10-16T13:59:36;15.38;;;2.08;;
68614;SDS011;55593;51.994;5.882;2022-10-16T14:02:14;14.32;;;2.75;;
68614;SDS011;55593;51.994;5.882;2022-10-16T14:04:46;11.25;;;2.83;;
68614;SDS011;55593;51.994;5.882;2022-10-16T14:07:19;12.52;;;2.35;;
68614;SDS011;55593;51.994;5.882;2022-10-16T14:09:50;12.95;;;2.08;;
68614;SDS011;55593;51.994;5.882;2022-10-16T14:12:24;16.20;;;2.33;;
68614;SDS011;55593;51.994;5.882;2022-10-16T14:14:53;21.98;;;3.10;;
68614;SDS011;55593;51.994;5.882;2022-10-16T14:17:23;17.00;;;3.40;;
68614;SDS011;55593;51.994;5.882;2022-10-16T14:19:55;14.30;;;2.38;;
68614;SDS011;55593;51.994;5.882;2022-10-16T14:22:28;11.30;;;2.55;;
68614;SDS011;55593;51.994;5.882;2022-10-16T14:24:59;17.65;;;2.83;;
68614;SDS011;55593;51.994;5.882;2022-10-16T14:27:32;13.18;;;2.85;;
68614;SDS011;55593;51.994;5.882;2022-10-16T14:30:14;19.88;;;3.03;;
68614;SDS011;55593;51.994;5.882;2022-10-16T14:32:53;11.05;;;2.58;;
68614;SDS011;55593;51.994;5.882;2022-10-16T14:35:23;18.30;;;4.10;;
68614;SDS011;55593;51.994;5.882;2022-10-16T14:37:54;13.70;;;2.95;;
68614;SDS011;55593;51.994;5.882;2022-10-16T14:40:25;11.75;;;2.97;;
68614;SDS011;55593;51.994;5.882;2022-10-16T14:42:58;13.32;;;3.47;;
68614;SDS011;55593;51.994;5.882;2022-10-16T14:45:28;16.23;;;4.78;;
68614;SDS011;55593;51.994;5.882;2022-10-16T14:48:00;16.70;;;2.85;;
68614;SDS011;55593;51.994;5.882;2022-10-16T14:50:30;9.63;;;2.10;;
68614;SDS011;55593;51.994;5.882;2022-10-16T14:53:00;14.48;;;2.95;;
68614;SDS011;55593;51.994;5.882;2022-10-16T14:55:29;15.13;;;3.60;;
68614;SDS011;55593;51.994;5.882;2022-10-16T14:58:00;10.48;;;2.38;;
68614;SDS011;55593;51.994;5.882;2022-10-16T15:00:30;10.70;;;2.42;;
68614;SDS011;55593;51.994;5.882;2022-10-16T15:02:59;9.73;;;2.33;;
68614;SDS011;55593;51.994;5.882;2022-10-16T15:05:28;13.45;;;2.30;;
68614;SDS011;55593;51.994;5.882;2022-10-16T15:07:58;11.70;;;2.45;;
68614;SDS011;55593;51.994;5.882;2022-10-16T15:10:27;14.20;;;3.03;;
68614;SDS011;55593;51.994;5.882;2022-10-16T15:13:00;13.63;;;2.30;;
68614;SDS011;55593;51.994;5.882;2022-10-16T15:15:34;13.57;;;2.35;;
68614;SDS011;55593;51.994;5.882;2022-10-16T15:18:04;12.30;;;3.10;;
68614;SDS011;55593;51.994;5.882;2022-10-16T15:20:34;17.30;;;3.47;;